Time;durP1;ratioP1;P1;durP2;ratioP2;P2;SDS_P1;SDS_P2;PMS_P1;PMS_P2;Temp;Humidity;BMP_temperature;BMP_pressure;BME280_temperature;BME280_humidity;BME280_pressure;Samples;Min_cycle;Max_cycle;Signal;HPM_P1;HPM_P2
2023/05/13 00:00:36;;;;;;;4.32;3.17;;;;;;;13.98;nan;99368.78;5073183;28;20222;-80
2023/05/13 00:03:01;;;;;;;5.47;3.22;;;;;;;13.91;nan;99371.94;5071014;28;20333;-79
2023/05/13 00:05:26;;;;;;;4.13;3.45;;;;;;;13.85;nan;99367.16;5069111;28;21807;-79
2023/05/13 00:07:52;;;;;;;4.00;2.63;;;;;;;13.84;nan;99370.75;5069199;28;20215;-80
2023/05/13 00:10:19;;;;;;;3.80;3.10;;;;;;;13.83;nan;99366.44;5069062;28;20238;-80
2023/05/13 00:12:44;;;;;;;4.30;3.70;;;;;;;13.82;nan;99369.19;5048167;28;20226;-80
2023/05/13 00:15:10;;;;;;;3.63;3.33;;;;;;;13.82;nan;99374.47;5069034;28;20207;-80
2023/05/13 00:17:36;;;;;;;3.10;2.80;;;;;;;13.81;nan;99365.72;5069670;28;20217;-79
2023/05/13 00:20:01;;;;;;;4.03;3.17;;;;;;;13.80;nan;99371.09;5068454;28;20483;-80
2023/05/13 00:22:27;;;;;;;4.70;3.20;;;;;;;13.77;nan;99374.00;5067209;28;20533;-80
2023/05/13 00:24:52;;;;;;;3.27;3.00;;;;;;;13.72;nan;99374.38;5068010;28;20648;-80
2023/05/13 00:27:17;;;;;;;3.63;2.77;;;;;;;13.62;nan;99376.91;5066370;28;20214;-79
2023/05/13 00:29:43;;;;;;;3.63;3.20;;;;;;;13.49;nan;99373.56;5049427;28;20230;-80
2023/05/13 00:32:08;;;;;;;3.10;2.77;;;;;;;13.40;nan;99374.31;5048459;28;20230;-80
2023/05/13 00:34:34;;;;;;;4.57;4.17;;;;;;;13.34;nan;99375.63;5066371;28;20520;-79
2023/05/13 00:36:59;;;;;;;3.43;2.77;;;;;;;13.33;nan;99373.94;5068529;28;20221;-80
2023/05/13 00:39:28;;;;;;;4.97;3.70;;;;;;;13.29;nan;99364.59;5069301;28;20376;-79
2023/05/13 00:41:53;;;;;;;4.03;3.63;;;;;;;13.25;nan;99366.59;5034681;28;20269;-79
2023/05/13 00:44:19;;;;;;;3.90;3.50;;;;;;;13.23;nan;99365.91;5068780;28;20207;-80
2023/05/13 00:46:44;;;;;;;4.30;3.90;;;;;;;13.25;nan;99365.75;5068973;28;20212;-79
2023/05/13 00:49:10;;;;;;;4.67;3.90;;;;;;;13.27;nan;99363.88;5068654;28;20538;-80
2023/05/13 00:51:35;;;;;;;4.33;3.93;;;;;;;13.28;nan;99363.78;5051309;28;20230;-79
2023/05/13 00:54:01;;;;;;;4.40;3.83;;;;;;;13.29;nan;99367.25;5069167;28;20213;-79
2023/05/13 00:56:26;;;;;;;4.43;3.87;;;;;;;13.26;nan;99362.22;5049786;28;20233;-79
2023/05/13 00:58:52;;;;;;;6.00;4.60;;;;;;;13.22;nan;99358.94;5068283;28;20219;-79
2023/05/13 01:01:20;;;;;;;5.87;4.10;;;;;;;13.21;nan;99369.63;5067171;28;20423;-80
2023/05/13 01:04:27;;;;;;;4.65;3.70;;;;;;;13.20;nan;99360.00;5049887;28;20426;-79
2023/05/13 01:07:06;;;;;;;5.93;4.90;;;;;;;13.23;nan;99360.63;5002838;28;20426;-79
2023/05/13 01:09:46;;;;;;;5.07;4.68;;;;;;;13.23;nan;99359.75;5067225;28;20231;-79
2023/05/13 01:12:18;;;;;;;5.20;3.00;;;;;;;13.16;nan;99361.22;5067290;28;20232;-79
2023/05/13 01:14:53;;;;;;;3.22;2.95;;;;;;;12.99;nan;99371.28;5047564;28;20748;-79
2023/05/13 01:17:27;;;;;;;2.53;2.25;;;;;;;12.86;nan;99367.91;5066973;28;20341;-79
2023/05/13 01:19:56;;;;;;;3.97;2.95;;;;;;;12.81;nan;99377.97;5047733;28;20210;-80
2023/05/13 01:22:22;;;;;;;4.15;3.20;;;;;;;12.75;nan;99374.00;5067043;28;20808;-79
2023/05/13 01:24:49;;;;;;;3.60;3.30;;;;;;;12.69;nan;99379.75;5049778;28;20719;-79
2023/05/13 01:27:15;;;;;;;3.15;2.85;;;;;;;12.67;nan;99383.47;5048795;28;20215;-80
2023/05/13 01:29:41;;;;;;;3.90;3.50;;;;;;;12.63;nan;99381.03;5050059;28;20211;-79
2023/05/13 01:32:09;;;;;;;5.37;3.10;;;;;;;12.61;nan;99379.50;5046382;28;20265;-79
2023/05/13 01:34:35;;;;;;;4.22;3.78;;;;;;;12.61;nan;99382.13;5067507;28;20451;-80
2023/05/13 01:37:02;;;;;;;4.20;3.80;;;;;;;12.60;nan;99383.06;5048140;28;20216;-79
2023/05/13 01:39:29;;;;;;;4.13;3.70;;;;;;;12.60;nan;99375.16;5067659;28;20207;-80
2023/05/13 01:41:58;;;;;;;4.78;4.30;;;;;;;12.62;nan;99381.16;5048794;28;20566;-79
2023/05/13 01:44:23;;;;;;;3.53;3.17;;;;;;;12.66;nan;99379.13;5049700;28;20203;-80
2023/05/13 01:46:49;;;;;;;4.63;3.70;;;;;;;12.70;nan;99383.22;5068030;28;20463;-80
2023/05/13 01:49:16;;;;;;;4.80;4.30;;;;;;;12.71;nan;99385.72;5048882;28;20224;-80
2023/05/13 01:51:41;;;;;;;6.47;4.17;;;;;;;12.73;nan;99383.81;5049297;28;20220;-80
2023/05/13 01:54:07;;;;;;;5.83;5.17;;;;;;;12.78;nan;99379.03;5050721;28;20215;-79
2023/05/13 01:56:35;;;;;;;7.72;4.82;;;;;;;12.83;nan;99376.06;5053796;28;20211;-79
2023/05/13 01:59:01;;;;;;;8.80;6.47;;;;;;;12.87;nan;99381.94;5053890;28;20244;-80
2023/05/13 02:01:27;;;;;;;7.23;5.60;;;;;;;12.90;nan;99379.88;5053584;28;20231;-80
2023/05/13 02:04:03;;;;;;;6.50;5.90;;;;;;;12.96;nan;99378.56;5111338;22;20278;-83
2023/05/13 02:06:39;;;;;;;7.40;6.50;;;;;;;12.99;nan;99381.81;5043152;28;20250;-83
2023/05/13 02:09:18;;;;;;;6.57;5.78;;;;;;;13.01;nan;99385.16;5068545;28;20228;-83
2023/05/13 02:11:45;;;;;;;5.67;4.43;;;;;;;13.00;nan;99387.94;5067017;28;20239;-83
2023/05/13 02:14:10;;;;;;;8.20;5.97;;;;;;;13.00;nan;99386.13;5064113;28;20263;-84
2023/05/13 02:16:35;;;;;;;9.07;6.47;;;;;;;13.04;nan;99387.59;5033875;28;20213;-83
2023/05/13 02:19:04;;;;;;;7.40;5.85;;;;;;;13.06;nan;99385.66;5037341;28;20213;-83
2023/05/13 02:21:30;;;;;;;5.83;5.23;;;;;;;13.10;nan;99388.06;5052901;28;20239;-83
2023/05/13 02:23:56;;;;;;;8.05;5.50;;;;;;;13.12;nan;99386.13;5050590;28;20238;-84
2023/05/13 02:26:21;;;;;;;7.33;6.10;;;;;;;13.13;nan;99387.84;5032939;28;20221;-84
2023/05/13 02:28:47;;;;;;;7.23;6.30;;;;;;;13.14;nan;99390.34;5051179;28;20286;-83
2023/05/13 02:31:12;;;;;;;9.07;6.23;;;;;;;13.16;nan;99388.41;5031814;28;20315;-85
2023/05/13 02:33:40;;;;;;;8.35;5.97;;;;;;;13.16;nan;99385.78;5030907;28;20302;-84
2023/05/13 02:36:05;;;;;;;8.03;7.23;;;;;;;13.20;nan;99391.66;5025627;28;20539;-84
2023/05/13 02:38:30;;;;;;;6.63;5.67;;;;;;;13.16;nan;99395.50;5029379;28;20456;-83
2023/05/13 02:40:56;;;;;;;7.50;5.50;;;;;;;13.17;nan;99389.25;5027171;28;20213;-84
2023/05/13 02:43:23;;;;;;;6.47;5.22;;;;;;;13.17;nan;99392.72;5026928;28;20468;-83
2023/05/13 02:45:55;;;;;;;6.85;6.15;;;;;;;13.19;nan;99384.72;5043031;28;20307;-83
2023/05/13 02:48:20;;;;;;;5.40;4.90;;;;;;;13.20;nan;99384.56;5026773;28;20293;-83
2023/05/13 02:50:46;;;;;;;8.70;6.30;;;;;;;13.22;nan;99384.47;5024889;28;20212;-83
2023/05/13 02:53:11;;;;;;;6.93;5.30;;;;;;;13.26;nan;99388.59;5042989;28;20226;-85
2023/05/13 02:55:42;;;;;;;6.25;5.15;;;;;;;13.31;nan;99386.41;5023463;28;20212;-85
2023/05/13 02:58:08;;;;;;;8.13;5.53;;;;;;;13.34;nan;99375.63;5030859;28;20418;-84
2023/05/13 03:00:33;;;;;;;6.60;5.83;;;;;;;13.38;nan;99379.69;5029810;28;20246;-84
2023/05/13 03:02:59;;;;;;;7.80;7.10;;;;;;;13.41;nan;99379.44;5024755;28;20255;-84
2023/05/13 03:05:25;;;;;;;6.63;5.70;;;;;;;13.43;nan;99379.34;5042085;28;20219;-83
2023/05/13 03:07:50;;;;;;;7.10;6.23;;;;;;;13.45;nan;99370.34;5059690;28;20230;-85
2023/05/13 03:10:16;;;;;;;8.80;5.83;;;;;;;13.47;nan;99370.19;5042349;28;20776;-84
2023/05/13 03:12:42;;;;;;;6.57;5.63;;;;;;;13.47;nan;99378.97;5044374;28;20227;-83
2023/05/13 03:15:08;;;;;;;8.10;5.53;;;;;;;13.45;nan;99372.16;5063740;28;20212;-83
2023/05/13 03:17:34;;;;;;;7.93;6.78;;;;;;;13.41;nan;99374.16;5051472;28;20482;-83
2023/05/13 03:20:00;;;;;;;7.00;6.27;;;;;;;13.37;nan;99377.19;5049028;28;20311;-84
2023/05/13 03:22:25;;;;;;;6.10;5.50;;;;;;;13.32;nan;99382.00;5024622;28;20216;-84
2023/05/13 03:24:51;;;;;;;7.17;6.47;;;;;;;13.27;nan;99377.06;5049025;28;20213;-83
2023/05/13 03:27:18;;;;;;;7.85;7.05;;;;;;;13.21;nan;99374.88;5064467;28;20887;-83
2023/05/13 03:29:43;;;;;;;6.57;5.60;;;;;;;13.15;nan;99388.53;5043267;28;20727;-84
2023/05/13 03:32:09;;;;;;;8.37;5.83;;;;;;;13.10;nan;99393.34;5066149;28;20205;-84
2023/05/13 03:34:36;;;;;;;8.17;6.43;;;;;;;12.99;nan;99387.09;5047837;28;20210;-83
2023/05/13 03:37:01;;;;;;;9.55;7.10;;;;;;;12.88;nan;99384.47;5049186;28;20297;-83
2023/05/13 03:39:28;;;;;;;7.50;6.80;;;;;;;12.86;nan;99389.00;5049335;28;20699;-83
2023/05/13 03:41:54;;;;;;;7.30;5.77;;;;;;;12.87;nan;99395.94;5048760;28;20308;-84
2023/05/13 03:44:19;;;;;;;8.90;6.27;;;;;;;12.86;nan;99394.28;5065889;28;20318;-84
2023/05/13 03:46:45;;;;;;;8.00;5.50;;;;;;;12.86;nan;99394.28;5041962;28;20608;-84
2023/05/13 03:49:11;;;;;;;8.37;6.53;;;;;;;12.87;nan;99395.09;5048142;28;20912;-84
2023/05/13 03:51:36;;;;;;;9.52;6.97;;;;;;;12.90;nan;99400.97;5040040;28;20236;-83
2023/05/13 03:54:02;;;;;;;6.90;5.53;;;;;;;12.93;nan;99402.53;5048045;28;20227;-84
2023/05/13 03:56:28;;;;;;;5.07;4.57;;;;;;;12.96;nan;99407.56;5067227;28;20222;-85
2023/05/13 03:58:57;;;;;;;6.90;6.20;;;;;;;12.98;nan;99406.50;5053819;28;20211;-84
2023/05/13 04:01:31;;;;;;;8.52;5.72;;;;;;;13.00;nan;99403.75;5070087;28;20634;-82
2023/05/13 04:03:57;;;;;;;10.60;6.63;;;;;;;13.00;nan;99407.22;5066694;28;20806;-82
2023/05/13 04:06:22;;;;;;;6.63;5.27;;;;;;;12.98;nan;99411.75;5046745;28;20219;-83
2023/05/13 04:08:48;;;;;;;7.90;5.80;;;;;;;12.98;nan;99401.22;5047880;28;20298;-83
2023/05/13 04:11:14;;;;;;;9.00;5.50;;;;;;;12.98;nan;99405.66;5065284;28;20208;-83
2023/05/13 04:13:40;;;;;;;7.60;5.70;;;;;;;12.97;nan;99412.75;5064596;28;20229;-84
2023/05/13 04:16:05;;;;;;;5.70;5.10;;;;;;;13.02;nan;99413.22;5047774;28;20834;-82
2023/05/13 04:18:32;;;;;;;8.23;6.03;;;;;;;13.06;nan;99414.66;5064312;28;20217;-83
2023/05/13 04:21:05;;;;;;;6.40;5.20;;;;;;;13.11;nan;99416.94;5058273;28;20445;-82
2023/05/13 04:23:30;;;;;;;7.90;5.28;;;;;;;13.12;nan;99426.53;5061743;28;20771;-82
2023/05/13 04:25:56;;;;;;;8.20;5.77;;;;;;;13.09;nan;99426.75;5063463;28;20225;-83
2023/05/13 04:28:21;;;;;;;6.50;5.80;;;;;;;13.06;nan;99424.38;5046399;28;20219;-83
2023/05/13 04:30:48;;;;;;;5.97;5.20;;;;;;;13.02;nan;99426.41;5046385;28;20636;-83
2023/05/13 04:33:14;;;;;;;5.80;5.20;;;;;;;12.99;nan;99428.44;5046604;28;20262;-84
2023/05/13 04:35:42;;;;;;;7.70;4.88;;;;;;;12.96;nan;99421.63;5048533;28;20555;-84
2023/05/13 04:38:08;;;;;;;6.23;4.50;;;;;;;12.95;nan;99425.19;5041726;28;20213;-82
2023/05/13 04:40:34;;;;;;;7.10;5.30;;;;;;;12.95;nan;99425.19;5046657;28;20249;-83
2023/05/13 04:43:04;;;;;;;8.77;5.43;;;;;;;12.97;nan;99427.72;5050891;28;20312;-84
2023/05/13 04:45:35;;;;;;;9.05;5.55;;;;;;;12.99;nan;99436.38;5051720;28;20211;-84
2023/05/13 04:48:01;;;;;;;7.72;5.78;;;;;;;13.04;nan;99427.13;5042170;28;20230;-83
2023/05/13 04:50:27;;;;;;;6.20;5.10;;;;;;;13.09;nan;99433.84;5064954;28;20208;-84
2023/05/13 04:52:53;;;;;;;6.40;5.40;;;;;;;13.13;nan;99441.41;5048015;28;20537;-82
2023/05/13 04:55:19;;;;;;;5.43;4.93;;;;;;;13.17;nan;99437.56;5047641;28;20248;-83
2023/05/13 04:57:45;;;;;;;10.07;7.83;;;;;;;13.21;nan;99443.47;5049509;28;20296;-83
2023/05/13 05:00:11;;;;;;;5.23;4.73;;;;;;;13.21;nan;99440.81;5048441;28;20238;-83
2023/05/13 05:02:38;;;;;;;5.80;4.47;;;;;;;13.21;nan;99443.47;5044066;28;20280;-84
2023/05/13 05:05:04;;;;;;;5.77;5.00;;;;;;;13.19;nan;99434.81;5044213;28;20286;-83
2023/05/13 05:07:30;;;;;;;7.20;4.93;;;;;;;13.20;nan;99444.41;5043585;28;20270;-83
2023/05/13 05:09:55;;;;;;;7.63;5.27;;;;;;;13.21;nan;99440.81;5035512;28;20242;-83
2023/05/13 05:12:21;;;;;;;5.30;4.80;;;;;;;13.22;nan;99439.84;5057113;28;20215;-83
2023/05/13 05:14:47;;;;;;;19.33;5.60;;;;;;;13.22;nan;99445.97;5042516;28;20520;-83
2023/05/13 05:17:12;;;;;;;5.73;5.00;;;;;;;13.27;nan;99453.56;5062507;28;20683;-83
2023/05/13 05:19:38;;;;;;;4.90;4.50;;;;;;;13.28;nan;99444.69;5048134;28;20256;-83
2023/05/13 05:22:04;;;;;;;5.33;4.83;;;;;;;13.26;nan;99447.44;5048639;28;21138;-83
2023/05/13 05:24:29;;;;;;;5.83;5.17;;;;;;;13.31;nan;99454.16;5049410;28;20473;-83
2023/05/13 05:26:55;;;;;;;5.70;5.13;;;;;;;13.32;nan;99453.22;5047721;28;20231;-83
2023/05/13 05:29:21;;;;;;;5.15;4.05;;;;;;;13.33;nan;99447.81;5048448;28;20259;-83
2023/05/13 05:31:47;;;;;;;5.38;4.50;;;;;;;13.37;nan;99451.91;5047244;28;20517;-83
2023/05/13 05:34:13;;;;;;;6.80;4.90;;;;;;;13.41;nan;99460.41;5048404;28;20229;-83
2023/05/13 05:36:39;;;;;;;8.63;4.47;;;;;;;13.43;nan;99447.94;5047856;28;20462;-84
2023/05/13 05:39:05;;;;;;;7.30;5.70;;;;;;;13.48;nan;99457.16;5038918;28;20282;-83
2023/05/13 05:41:32;;;;;;;7.32;6.47;;;;;;;13.50;nan;99455.25;5049066;28;20549;-83
2023/05/13 05:43:57;;;;;;;6.70;5.30;;;;;;;13.54;nan;99455.84;5050532;28;20267;-83
2023/05/13 05:46:23;;;;;;;7.20;5.13;;;;;;;13.57;nan;99454.78;5045472;28;20313;-83
2023/05/13 05:48:49;;;;;;;6.33;5.30;;;;;;;13.60;nan;99465.06;5044987;28;20221;-84
2023/05/13 05:51:14;;;;;;;6.07;4.83;;;;;;;13.64;nan;99455.97;5044068;28;20458;-84
2023/05/13 05:53:41;;;;;;;6.10;5.50;;;;;;;13.68;nan;99463.50;5044310;28;20455;-83
2023/05/13 05:56:07;;;;;;;6.10;4.70;;;;;;;13.76;nan;99470.00;5045418;28;20208;-82
2023/05/13 05:58:34;;;;;;;6.40;5.18;;;;;;;13.78;nan;99474.19;5059951;28;20242;-84
2023/05/13 06:01:00;;;;;;;4.85;4.15;;;;;;;13.82;nan;99474.78;5044237;28;20206;-83
2023/05/13 06:03:26;;;;;;;5.13;4.63;;;;;;;13.85;nan;99472.75;5061109;28;20385;-83
2023/05/13 06:05:52;;;;;;;6.63;5.93;;;;;;;13.94;nan;99473.81;5043456;28;20433;-82
2023/05/13 06:08:18;;;;;;;7.47;6.07;;;;;;;14.02;nan;99475.84;5061647;28;20222;-85
2023/05/13 06:10:43;;;;;;;5.20;4.63;;;;;;;14.06;nan;99472.00;5036330;28;20254;-83
2023/05/13 06:13:09;;;;;;;5.60;4.70;;;;;;;14.06;nan;99472.81;5043750;28;20602;-83
2023/05/13 06:15:35;;;;;;;4.30;3.80;;;;;;;14.08;nan;99478.84;5062143;28;20254;-84
2023/05/13 06:18:04;;;;;;;6.07;4.20;;;;;;;14.11;nan;99478.59;5049445;28;20222;-83
2023/05/13 06:20:32;;;;;;;4.70;4.22;;;;;;;14.19;nan;99479.78;5043509;28;20213;-83
2023/05/13 06:22:57;;;;;;;5.97;5.43;;;;;;;14.19;nan;99477.97;5063370;28;20226;-82
2023/05/13 06:25:23;;;;;;;5.65;4.40;;;;;;;14.17;nan;99472.78;5043966;28;20212;-84
2023/05/13 06:27:49;;;;;;;5.50;4.00;;;;;;;14.18;nan;99476.31;5044330;28;20672;-84
2023/05/13 06:30:19;;;;;;;5.18;4.68;;;;;;;14.20;nan;99478.81;5045364;28;20218;-83
2023/05/13 06:32:45;;;;;;;7.43;4.18;;;;;;;14.24;nan;99475.78;5062553;28;20688;-85
2023/05/13 06:35:10;;;;;;;7.83;5.27;;;;;;;14.28;nan;99477.22;5042400;28;20435;-85
2023/05/13 06:37:36;;;;;;;5.60;5.00;;;;;;;14.27;nan;99477.34;5043585;28;20452;-85
2023/05/13 06:40:02;;;;;;;5.03;4.40;;;;;;;14.25;nan;99479.28;5042894;28;20212;-85
2023/05/13 06:42:28;;;;;;;6.95;4.07;;;;;;;14.26;nan;99481.81;5047174;28;20247;-85
2023/05/13 06:44:58;;;;;;;4.45;4.05;;;;;;;14.30;nan;99474.47;5046715;28;20268;-85
2023/05/13 06:47:28;;;;;;;4.97;4.50;;;;;;;14.35;nan;99475.75;5047893;28;20209;-85
2023/05/13 06:49:53;;;;;;;5.13;4.63;;;;;;;14.43;nan;99475.13;5065458;28;20217;-85
2023/05/13 06:52:19;;;;;;;6.23;4.23;;;;;;;14.49;nan;99471.97;5047052;28;20223;-86
2023/05/13 06:54:44;;;;;;;5.00;4.50;;;;;;;14.55;nan;99471.50;5065711;28;20216;-85
2023/05/13 06:57:11;;;;;;;4.50;4.10;;;;;;;14.64;nan;99472.56;5063945;28;20212;-85
2023/05/13 06:59:36;;;;;;;4.82;4.32;;;;;;;14.71;nan;99471.06;5065599;28;20215;-85
2023/05/13 07:02:01;;;;;;;5.10;3.97;;;;;;;14.76;nan;99474.19;5066371;28;20596;-87
2023/05/13 07:04:29;;;;;;;5.83;5.20;;;;;;;14.86;nan;99478.72;5064001;28;20450;-86
2023/05/13 07:06:55;;;;;;;4.72;4.25;;;;;;;14.93;nan;99483.38;5065525;28;20213;-85
2023/05/13 07:09:20;;;;;;;5.88;5.30;;;;;;;14.96;nan;99477.81;5068825;28;20231;-86
2023/05/13 07:11:48;;;;;;;4.47;4.07;;;;;;;15.00;nan;99481.88;5068439;28;20223;-85
2023/05/13 07:14:42;;;;;;;5.80;4.95;;;;;;;15.03;nan;99486.06;5067057;28;20237;-85
2023/05/13 07:17:08;;;;;;;6.18;5.00;;;;;;;15.01;nan;99486.22;5063669;28;20199;-85
2023/05/13 07:19:33;;;;;;;7.07;4.90;;;;;;;14.99;nan;99482.03;5064502;28;20611;-85
2023/05/13 07:21:58;;;;;;;5.87;4.73;;;;;;;14.97;nan;99492.72;5064621;28;20688;-85
2023/05/13 07:24:24;;;;;;;5.63;4.70;;;;;;;14.94;nan;99489.50;5065358;28;20216;-85
2023/05/13 07:26:49;;;;;;;6.03;5.10;;;;;;;14.94;nan;99489.50;5044030;28;20214;-84
2023/05/13 07:29:14;;;;;;;5.80;5.00;;;;;;;14.95;nan;99489.34;5061667;28;20251;-84
2023/05/13 07:31:40;;;;;;;7.33;5.30;;;;;;;14.94;nan;99492.97;5061275;28;20819;-86
2023/05/13 07:34:05;;;;;;;5.63;5.13;;;;;;;14.94;nan;99484.22;5062062;28;20211;-84
2023/05/13 07:36:31;;;;;;;5.23;4.73;;;;;;;14.94;nan;99489.50;5061708;28;20275;-84
2023/05/13 07:38:56;;;;;;;5.70;4.93;;;;;;;14.95;nan;99481.41;5061700;28;20215;-84
2023/05/13 07:41:26;;;;;;;5.03;4.53;;;;;;;14.97;nan;99490.06;5061767;28;20434;-83
2023/05/13 07:43:52;;;;;;;5.78;5.18;;;;;;;14.99;nan;99495.25;5062667;28;20273;-84
2023/05/13 07:46:17;;;;;;;7.63;4.63;;;;;;;14.97;nan;99495.34;5062753;28;20579;-83
2023/05/13 07:48:43;;;;;;;5.33;4.83;;;;;;;14.95;nan;99497.28;5061648;28;21004;-84
2023/05/13 07:51:08;;;;;;;7.20;4.83;;;;;;;14.94;nan;99497.44;5060204;28;20210;-84
2023/05/13 07:53:35;;;;;;;7.23;5.10;;;;;;;14.91;nan;99489.75;5058897;28;20231;-84
2023/05/13 07:56:01;;;;;;;6.07;5.28;;;;;;;14.92;nan;99489.63;5058965;28;20232;-84
2023/05/13 07:58:27;;;;;;;6.17;5.23;;;;;;;14.99;nan;99488.16;5059373;28;20199;-84
2023/05/13 08:00:52;;;;;;;5.80;4.80;;;;;;;15.09;nan;99487.34;5058943;28;20464;-83
2023/05/13 08:03:20;;;;;;;4.70;4.30;;;;;;;15.18;nan;99484.78;5056341;22;20233;-79
2023/05/13 08:05:46;;;;;;;7.20;5.50;;;;;;;15.34;nan;99499.34;5018999;28;20756;-80
2023/05/13 08:08:12;;;;;;;5.15;4.75;;;;;;;15.46;nan;99493.84;5028800;28;20473;-81
2023/05/13 08:10:37;;;;;;;6.37;4.87;;;;;;;15.57;nan;99492.09;5037339;28;20570;-80
2023/05/13 08:13:03;;;;;;;5.73;5.23;;;;;;;15.66;nan;99485.97;5039608;28;20217;-80
2023/05/13 08:15:28;;;;;;;6.87;5.33;;;;;;;15.76;nan;99491.38;5037709;28;20679;-80
2023/05/13 08:17:53;;;;;;;5.37;4.40;;;;;;;15.95;nan;99493.25;5036442;28;20210;-79
2023/05/13 08:20:21;;;;;;;5.33;4.80;;;;;;;16.24;nan;99490.66;5037169;28;20316;-79
2023/05/13 08:22:47;;;;;;;4.93;4.40;;;;;;;16.54;nan;99482.59;5037608;28;20644;-79
2023/05/13 08:25:14;;;;;;;7.50;4.60;;;;;;;16.88;nan;99486.69;5037165;28;21338;-80
2023/05/13 08:27:39;;;;;;;4.68;4.28;;;;;;;17.23;nan;99488.75;5038191;28;20227;-81
2023/05/13 08:30:05;;;;;;;4.57;4.20;;;;;;;17.50;nan;99477.34;5038805;28;20236;-80
2023/05/13 08:32:30;;;;;;;4.57;4.13;;;;;;;17.70;nan;99480.75;5037441;28;20200;-81
2023/05/13 08:34:56;;;;;;;4.53;3.80;;;;;;;17.78;nan;99475.53;5037513;28;20475;-80
2023/05/13 08:37:21;;;;;;;4.87;4.40;;;;;;;17.83;nan;99478.63;5036196;28;20222;-81
2023/05/13 08:39:47;;;;;;;4.67;4.27;;;;;;;17.92;nan;99474.25;5038257;28;20921;-81
2023/05/13 08:42:17;;;;;;;4.77;4.30;;;;;;;17.91;nan;99481.38;5037078;28;20222;-80
2023/05/13 08:44:43;;;;;;;3.80;3.50;;;;;;;17.90;nan;99486.84;5036518;28;20251;-80
2023/05/13 08:47:48;;;;;;;4.73;3.57;;;;;;;17.99;nan;99490.44;5035813;28;20476;-80
2023/05/13 08:50:13;;;;;;;3.60;3.30;;;;;;;18.10;nan;99480.44;5029169;28;20241;-81
2023/05/13 08:52:39;;;;;;;5.47;4.93;;;;;;;18.13;nan;99481.97;5035235;28;20522;-80
2023/05/13 08:55:05;;;;;;;3.20;2.90;;;;;;;18.16;nan;99481.66;5037571;28;20224;-80
2023/05/13 08:57:30;;;;;;;3.70;3.30;;;;;;;18.13;nan;99480.13;5036416;28;20219;-80
2023/05/13 08:59:56;;;;;;;4.57;3.50;;;;;;;18.10;nan;99480.44;5038255;28;20535;-80
2023/05/13 09:02:22;;;;;;;3.43;2.90;;;;;;;18.10;nan;99482.28;5037559;28;20246;-79
2023/05/13 09:04:52;;;;;;;3.60;3.30;;;;;;;18.04;nan;99478.38;4997480;28;1074028;-80
2023/05/13 09:07:17;;;;;;;4.67;2.83;;;;;;;18.05;nan;99479.22;5035142;28;20698;-80
2023/05/13 09:09:44;;;;;;;3.63;2.87;;;;;;;18.04;nan;99477.56;5033755;28;20496;-80
2023/05/13 09:12:09;;;;;;;2.77;2.50;;;;;;;18.03;nan;99479.34;5033504;28;20236;-79
2023/05/13 09:14:36;;;;;;;3.53;3.20;;;;;;;18.02;nan;99480.34;5031920;28;20970;-81
2023/05/13 09:17:02;;;;;;;4.00;2.63;;;;;;;18.07;nan;99474.59;5033803;28;20217;-78
2023/05/13 09:19:27;;;;;;;2.97;2.70;;;;;;;18.10;nan;99479.63;5032266;28;20910;-79
2023/05/13 09:21:53;;;;;;;3.63;3.33;;;;;;;18.14;nan;99478.31;5034221;28;20585;-77
2023/05/13 09:24:20;;;;;;;3.30;3.10;;;;;;;18.17;nan;99485.16;5033039;28;20246;-78
2023/05/13 09:26:50;;;;;;;3.70;3.40;;;;;;;18.16;nan;99486.97;5032293;28;20208;-79
2023/05/13 09:29:24;;;;;;;3.00;2.80;;;;;;;18.20;nan;99477.75;5032958;28;20514;-81
2023/05/13 09:31:50;;;;;;;3.90;3.53;;;;;;;18.20;nan;99483.06;5033496;28;20462;-81
2023/05/13 09:34:46;;;;;;;3.20;3.00;;;;;;;18.20;nan;99483.06;5030219;28;20464;-82
2023/05/13 09:37:17;;;;;;;3.30;2.97;;;;;;;18.22;nan;99483.72;5019562;28;20472;-81
2023/05/13 09:39:42;;;;;;;3.07;2.77;;;;;;;18.23;nan;99490.72;5030827;28;20852;-79
2023/05/13 09:42:18;;;;;;;3.83;3.03;;;;;;;18.24;nan;99481.75;5029654;28;20471;-78
2023/05/13 09:44:46;;;;;;;3.23;2.87;;;;;;;18.17;nan;99485.16;5029810;28;20217;-79
2023/05/13 09:47:16;;;;;;;3.23;2.93;;;;;;;18.09;nan;99480.56;5032003;28;21187;-78
2023/05/13 09:49:43;;;;;;;2.93;2.63;;;;;;;18.10;nan;99492.91;5030049;28;20485;-78
2023/05/13 09:52:10;;;;;;;4.10;3.37;;;;;;;18.17;nan;99487.81;5031977;28;20557;-79
2023/05/13 09:54:37;;;;;;;2.87;2.67;;;;;;;18.16;nan;99484.31;5031745;28;20521;-82
2023/05/13 09:57:03;;;;;;;3.17;2.93;;;;;;;18.24;nan;99488.91;5032266;28;20473;-82
2023/05/13 09:59:35;;;;;;;5.10;3.00;;;;;;;18.31;nan;99490.81;5033512;28;20459;-81
2023/05/13 10:02:05;;;;;;;3.40;2.87;;;;;;;18.35;nan;99486.03;5030229;28;20926;-81
2023/05/13 10:04:31;;;;;;;4.25;3.38;;;;;;;18.41;nan;99489.91;5031353;28;20876;-78
2023/05/13 10:07:03;;;;;;;3.30;3.00;;;;;;;18.52;nan;99490.53;5035617;28;20707;-78
2023/05/13 10:09:34;;;;;;;3.90;3.60;;;;;;;18.63;nan;99489.44;5035173;28;21013;-79
2023/05/13 10:12:02;;;;;;;3.03;2.73;;;;;;;18.66;nan;99489.16;5035347;28;20469;-79
2023/05/13 10:14:28;;;;;;;2.67;2.40;;;;;;;18.67;nan;99490.00;5034876;28;20471;-80
2023/05/13 10:16:56;;;;;;;2.90;2.60;;;;;;;18.65;nan;99487.47;5041866;28;20480;-79
2023/05/13 10:19:23;;;;;;;3.27;2.57;;;;;;;18.58;nan;99489.09;5042067;28;20489;-78
2023/05/13 10:21:50;;;;;;;2.93;2.60;;;;;;;18.55;nan;99486.72;5043574;28;20809;-78
2023/05/13 10:24:16;;;;;;;3.00;2.70;;;;;;;18.53;nan;99488.69;5042448;28;21148;-79
2023/05/13 10:26:42;;;;;;;2.87;2.33;;;;;;;18.64;nan;99484.97;5042265;28;21033;-77
2023/05/13 10:29:09;;;;;;;2.70;2.50;;;;;;;18.68;nan;99481.84;5043558;28;20229;-80
2023/05/13 10:31:36;;;;;;;2.90;2.50;;;;;;;18.74;nan;99481.28;5043168;28;20465;-79
2023/05/13 10:34:02;;;;;;;2.57;2.37;;;;;;;18.85;nan;99487.34;5041741;28;20531;-78
2023/05/13 10:36:58;;;;;;;2.80;2.60;;;;;;;19.02;nan;99483.84;5040626;28;20486;-80
2023/05/13 10:39:33;;;;;;;2.90;2.60;;;;;;;19.11;nan;99485.53;5040602;28;20218;-82
2023/05/13 10:42:35;;;;;;;3.10;2.80;;;;;;;19.19;nan;99484.78;5040645;28;20466;-79
2023/05/13 10:45:01;;;;;;;3.13;2.90;;;;;;;19.27;nan;99492.00;5040862;28;20463;-79
2023/05/13 10:47:31;;;;;;;3.10;2.90;;;;;;;19.34;nan;99483.22;5043080;28;20489;-79
2023/05/13 10:49:57;;;;;;;2.77;2.57;;;;;;;19.45;nan;99479.47;5042315;28;20216;-79
2023/05/13 10:52:22;;;;;;;2.80;2.50;;;;;;;19.56;nan;99475.69;5042049;28;20494;-78
2023/05/13 10:55:03;;;;;;;3.60;2.37;;;;;;;19.55;nan;99480.19;5041484;28;20610;-80
2023/05/13 10:57:35;;;;;;;2.37;2.17;;;;;;;19.60;nan;99477.84;5041245;28;20316;-82
2023/05/13 11:00:14;;;;;;;3.13;2.10;;;;;;;19.74;nan;99472.97;5040988;28;20459;-83
2023/05/13 11:02:39;;;;;;;3.80;2.53;;;;;;;19.86;nan;99466.34;5040815;28;20494;-81
2023/05/13 11:05:05;;;;;;;2.85;2.20;;;;;;;20.12;nan;99468.94;5058954;28;20476;-81
2023/05/13 11:07:30;;;;;;;2.67;2.30;;;;;;;20.37;nan;99458.34;5062042;28;20219;-81
2023/05/13 11:09:58;;;;;;;2.80;2.60;;;;;;;20.57;nan;99462.38;5062298;28;20706;-81
2023/05/13 11:12:23;;;;;;;2.70;2.50;;;;;;;20.74;nan;99456.06;5061196;28;20217;-81
2023/05/13 11:14:49;;;;;;;2.33;2.13;;;;;;;20.92;nan;99447.88;5061227;28;20467;-82
2023/05/13 11:17:19;;;;;;;2.47;2.20;;;;;;;21.07;nan;99447.22;5052553;28;20209;-79
2023/05/13 11:19:46;;;;;;;2.63;2.43;;;;;;;21.07;nan;99445.38;5072209;28;20710;-81
2023/05/13 11:22:12;;;;;;;1.93;1.83;;;;;;;20.88;nan;99451.06;5066944;28;20837;-81
2023/05/13 11:24:38;;;;;;;2.17;1.97;;;;;;;20.63;nan;99452.88;5061303;28;20788;-79
2023/05/13 11:27:24;;;;;;;1.93;1.80;;;;;;;20.32;nan;99448.16;5059369;28;20442;-81
2023/05/13 11:29:54;;;;;;;2.20;2.00;;;;;;;20.16;nan;99456.13;5061249;28;20455;-81
2023/05/13 11:32:54;;;;;;;2.17;1.97;;;;;;;20.02;nan;99455.75;5060827;28;20975;-80
2023/05/13 11:35:20;;;;;;;1.60;1.50;;;;;;;19.79;nan;99458.16;5061075;28;20704;-80
2023/05/13 11:37:47;;;;;;;2.20;1.80;;;;;;;19.55;nan;99458.00;5060097;28;20461;-80
2023/05/13 11:40:24;;;;;;;9.23;1.80;;;;;;;19.43;nan;99455.63;5060606;28;20250;-81
2023/05/13 11:42:50;;;;;;;1.77;1.50;;;;;;;19.47;nan;99458.84;5059831;28;20535;-79
2023/05/13 11:45:16;;;;;;;3.07;1.47;;;;;;;19.48;nan;99457.00;5060831;28;21034;-79
2023/05/13 11:47:41;;;;;;;1.40;1.30;;;;;;;19.57;nan;99464.84;5061029;28;20537;-81
2023/05/13 11:50:20;;;;;;;1.47;1.23;;;;;;;19.44;nan;99457.31;5060663;28;20501;-80
2023/05/13 11:52:56;;;;;;;1.67;1.57;;;;;;;19.56;nan;99460.53;5060979;28;20201;-81